Time,TemperatureF,DewpointF,PressureIn,WindDirection,WindDirectionDegrees,WindSpeedMPH,WindSpeedGustMPH,Humidity,HourlyPrecipIn,Conditions,Clouds,dailyrainin,SoftwareType,DateUTC
2013-09-12 00:09:00,74.3,70.0,30.05,ESE,103,0.0,0.0,87,0.00,,,0.00,weatherlink.com 1.10,2013-09-12 05:09:00,
2013-09-12 00:24:00,73.9,70.0,30.05,ESE,103,0.0,0.0,88,0.00,,,0.00,weatherlink.com 1.10,2013-09-12 05:24:00,
2013-09-12 00:39:00,73.8,70.0,30.05,ESE,103,0.0,0.0,88,0.00,,,0.00,weatherlink.com 1.10,2013-09-12 05:39:00,
2013-09-12 00:54:00,73.4,70.0,30.05,ESE,103,0.0,0.0,89,0.00,,,0.00,weatherlink.com 1.10,2013-09-12 05:54:00,
2013-09-12 01:09:00,73.0,70.0,30.05,ESE,103,0.0,0.0,90,0.00,,,0.00,weatherlink.com 1.10,2013-09-12 06:09:00,
2013-09-12 01:24:00,72.6,70.0,30.04,ESE,103,0.0,0.0,90,0.00,,,0.00,weatherlink.com 1.10,2013-09-12 06:24:00,
2013-09-12 01:39:00,72.1,69.0,30.04,ESE,103,0.0,0.0,91,0.00,,,0.00,weatherlink.com 1.10,2013-09-12 06:39:00,
2013-09-12 01:54:00,71.8,69.0,30.05,ESE,103,0.0,0.0,92,0.00,,,0.00,weatherlink.com 1.10,2013-09-12 06:54:00,
2013-09-12 02:09:00,71.6,69.0,30.05,ESE,103,0.0,0.0,92,0.00,,,0.00,weatherlink.com 1.10,2013-09-12 07:09:00,
2013-09-12 02:24:00,71.2,69.0,30.04,ESE,103,0.0,0.0,92,0.00,,,0.00,weatherlink.com 1.10,2013-09-12 07:24:00,
2013-09-12 02:39:00,70.9,69.0,30.04,ESE,103,0.0,0.0,93,0.00,,,0.00,weatherlink.com 1.10,2013-09-12 07:39:00,
2013-09-12 02:54:00,70.5,68.0,30.04,ESE,103,0.0,0.0,93,0.00,,,0.00,weatherlink.com 1.10,2013-09-12 07:54:00,
2013-09-12 03:09:00,70.3,68.0,30.04,ESE,103,0.0,0.0,93,0.00,,,0.00,weatherlink.com 1.10,2013-09-12 08:09:00,
2013-09-12 03:24:00,70.4,68.0,30.04,ESE,103,0.0,0.0,93,0.00,,,0.00,weatherlink.com 1.10,2013-09-12 08:24:00,
2013-09-12 03:39:00,70.1,68.0,30.04,ESE,103,0.0,0.0,94,0.00,,,0.00,weatherlink.com 1.10,2013-09-12 08:39:00,
2013-09-12 03:54:00,70.0,68.0,30.04,ESE,103,0.0,0.0,94,0.00,,,0.00,weatherlink.com 1.10,2013-09-12 08:54:00,
2013-09-12 04:09:00,69.9,68.0,30.05,ESE,103,0.0,0.0,94,0.00,,,0.00,weatherlink.com 1.10,2013-09-12 09:09:00,
2013-09-12 04:24:00,69.7,68.0,30.05,ESE,103,0.0,0.0,94,0.00,,,0.00,weatherlink.com 1.10,2013-09-12 09:24:00,
2013-09-12 04:40:00,69.6,68.0,30.05,ESE,103,0.0,0.0,94,0.00,,,0.00,weatherlink.com 1.10,2013-09-12 09:40:00,
2013-09-12 04:55:00,69.5,68.0,30.05,ESE,103,0.0,0.0,94,0.00,,,0.00,weatherlink.com 1.10,2013-09-12 09:55:00,
2013-09-12 05:10:00,69.1,67.0,30.05,ESE,103,0.0,0.0,94,0.00,,,0.00,weatherlink.com 1.10,2013-09-12 10:10:00,
2013-09-12 05:25:00,69.0,68.0,30.05,ESE,103,0.0,0.0,95,0.00,,,0.00,weatherlink.com 1.10,2013-09-12 10:25:00,
2013-09-12 05:40:00,69.0,68.0,30.05,ESE,103,0.0,0.0,95,0.00,,,0.00,weatherlink.com 1.10,2013-09-12 10:40:00,
2013-09-12 05:55:00,69.0,68.0,30.05,ESE,103,0.0,0.0,95,0.00,,,0.00,weatherlink.com 1.10,2013-09-12 10:55:00,
2013-09-12 06:10:00,68.8,67.0,30.05,ESE,103,0.0,0.0,95,0.00,,,0.00,weatherlink.com 1.10,2013-09-12 11:10:00,
2013-09-12 06:25:00,68.6,67.0,30.05,ESE,103,0.0,0.0,95,0.00,,,0.00,weatherlink.com 1.10,2013-09-12 11:25:00,
2013-09-12 06:40:00,68.5,67.0,30.05,ESE,103,0.0,0.0,95,0.00,,,0.00,weatherlink.com 1.10,2013-09-12 11:40:00,
2013-09-12 06:55:00,68.2,67.0,30.06,ESE,103,0.0,0.0,95,0.00,,,0.00,weatherlink.com 1.10,2013-09-12 11:55:00,
2013-09-12 07:10:00,68.4,67.0,30.06,ESE,103,0.0,0.0,96,0.00,,,0.00,weatherlink.com 1.10,2013-09-12 12:10:00,
2013-09-12 07:25:00,69.0,68.0,30.06,ESE,103,0.0,0.0,96,0.00,,,0.00,weatherlink.com 1.10,2013-09-12 12:25:00,
2013-09-12 07:40:00,69.9,69.0,30.07,ESE,103,0.0,1.0,96,0.00,,,0.00,weatherlink.com 1.10,2013-09-12 12:40:00,
2013-09-12 07:55:00,70.9,70.0,30.07,ENE,63,0.0,1.0,96,0.00,,,0.00,weatherlink.com 1.10,2013-09-12 12:55:00,
2013-09-12 08:10:00,72.0,71.0,30.07,ENE,61,0.0,1.0,95,0.00,,,0.00,weatherlink.com 1.10,2013-09-12 13:10:00,
2013-09-12 08:25:00,73.2,71.0,30.07,ENE,61,0.0,1.0,93,0.00,,,0.00,weatherlink.com 1.10,2013-09-12 13:25:00,
2013-09-12 08:40:00,74.6,72.0,30.07,NE,49,1.0,3.0,90,0.00,,,0.00,weatherlink.com 1.10,2013-09-12 13:40:00,
2013-09-12 08:55:00,76.2,73.0,30.07,NE,50,0.0,2.0,88,0.00,,,0.00,weatherlink.com 1.10,2013-09-12 13:55:00,
2013-09-12 09:10:00,77.7,73.0,30.07,ENE,72,1.0,2.0,85,0.00,,,0.00,weatherlink.com 1.10,2013-09-12 14:10:00,
2013-09-12 09:25:00,78.9,72.0,30.07,ENE,68,3.0,3.0,79,0.00,,,0.00,weatherlink.com 1.10,2013-09-12 14:25:00,
2013-09-12 09:40:00,80.2,72.0,30.07,NE,50,3.0,4.0,75,0.00,,,0.00,weatherlink.com 1.10,2013-09-12 14:40:00,
2013-09-12 09:55:00,82.3,73.0,30.07,NNE,16,0.0,2.0,74,0.00,,,0.00,weatherlink.com 1.10,2013-09-12 14:55:00,
2013-09-12 10:10:00,83.2,72.0,30.07,NE,52,3.0,5.0,68,0.00,,,0.00,weatherlink.com 1.10,2013-09-12 15:10:00,
2013-09-12 10:25:00,84.8,71.0,30.07,SW,222,1.0,4.0,64,0.00,,,0.00,weatherlink.com 1.10,2013-09-12 15:25:00,
2013-09-12 10:39:00,85.9,71.0,30.06,NNE,26,2.0,4.0,62,0.00,,,0.00,weatherlink.com 1.10,2013-09-12 15:39:00,
2013-09-12 10:54:00,86.7,71.0,30.06,NE,56,0.0,3.0,60,0.00,,,0.00,weatherlink.com 1.10,2013-09-12 15:54:00,
2013-09-12 11:09:00,88.3,71.0,30.06,ESE,117,1.0,2.0,57,0.00,,,0.00,weatherlink.com 1.10,2013-09-12 16:09:00,
2013-09-12 11:25:00,88.4,70.0,30.06,NNE,23,3.0,3.0,55,0.00,,,0.00,weatherlink.com 1.10,2013-09-12 16:25:00,
2013-09-12 11:40:00,88.4,70.0,30.05,ENE,63,0.0,4.0,54,0.00,,,0.00,weatherlink.com 1.10,2013-09-12 16:40:00,
2013-09-12 11:55:00,87.7,70.0,30.05,North,349,1.0,4.0,55,0.00,,,0.00,weatherlink.com 1.10,2013-09-12 16:55:00,
2013-09-12 12:10:00,87.6,69.0,30.04,NNE,32,0.0,4.0,54,0.00,,,0.00,weatherlink.com 1.10,2013-09-12 17:10:00,
2013-09-12 12:25:00,89.0,69.0,30.04,ESE,107,0.0,4.0,51,0.00,,,0.00,weatherlink.com 1.10,2013-09-12 17:25:00,
2013-09-12 12:40:00,89.6,69.0,30.03,West,281,1.0,6.0,51,0.00,,,0.00,weatherlink.com 1.10,2013-09-12 17:40:00,
2013-09-12 12:55:00,89.1,68.0,30.02,WNW,285,0.0,4.0,50,0.00,,,0.00,weatherlink.com 1.10,2013-09-12 17:55:00,
2013-09-12 13:10:00,90.3,68.0,30.02,SSE,155,2.0,3.0,48,0.00,,,0.00,weatherlink.com 1.10,2013-09-12 18:10:00,
2013-09-12 13:25:00,91.6,68.0,30.01,ESE,122,1.0,4.0,46,0.00,,,0.00,weatherlink.com 1.10,2013-09-12 18:25:00,
2013-09-12 13:40:00,90.9,68.0,30.01,ENE,77,4.0,6.0,47,0.00,,,0.00,weatherlink.com 1.10,2013-09-12 18:40:00,
2013-09-12 13:55:00,91.2,68.0,30.00,ENE,65,2.0,5.0,47,0.00,,,0.00,weatherlink.com 1.10,2013-09-12 18:55:00,
2013-09-12 14:10:00,90.9,69.0,29.99,ENE,75,2.0,4.0,48,0.00,,,0.00,weatherlink.com 1.10,2013-09-12 19:10:00,
2013-09-12 14:25:00,92.4,69.0,29.98,WSW,255,2.0,3.0,46,0.00,,,0.00,weatherlink.com 1.10,2013-09-12 19:25:00,
2013-09-12 14:40:00,93.0,67.0,29.97,North,5,1.0,3.0,43,0.00,,,0.00,weatherlink.com 1.10,2013-09-12 19:40:00,
2013-09-12 14:55:00,93.0,67.0,29.96,NE,46,1.0,5.0,43,0.00,,,0.00,weatherlink.com 1.10,2013-09-12 19:55:00,
2013-09-12 15:10:00,93.4,68.0,29.96,SE,145,0.0,3.0,43,0.00,,,0.00,weatherlink.com 1.10,2013-09-12 20:10:00,
2013-09-12 15:25:00,93.3,68.0,29.95,SE,137,1.0,3.0,43,0.00,,,0.00,weatherlink.com 1.10,2013-09-12 20:25:00,
2013-09-12 15:40:00,93.7,67.0,29.95,NE,49,1.0,4.0,42,0.00,,,0.00,weatherlink.com 1.10,2013-09-12 20:40:00,
2013-09-12 15:55:00,94.0,68.0,29.94,ENE,65,2.0,5.0,43,0.00,,,0.00,weatherlink.com 1.10,2013-09-12 20:55:00,
2013-09-12 16:10:00,93.5,67.0,29.94,SE,137,1.0,4.0,42,0.00,,,0.00,weatherlink.com 1.10,2013-09-12 21:10:00,
2013-09-12 16:25:00,93.6,68.0,29.93,SE,127,1.0,3.0,43,0.00,,,0.00,weatherlink.com 1.10,2013-09-12 21:25:00,
2013-09-12 16:40:00,93.7,67.0,29.93,NE,41,1.0,4.0,42,0.00,,,0.00,weatherlink.com 1.10,2013-09-12 21:40:00,
2013-09-12 16:55:00,91.6,67.0,29.93,East,91,1.0,2.0,45,0.00,,,0.00,weatherlink.com 1.10,2013-09-12 21:55:00,
2013-09-12 17:10:00,90.8,67.0,29.92,SSE,150,1.0,2.0,46,0.00,,,0.00,weatherlink.com 1.10,2013-09-12 22:10:00,
2013-09-12 17:25:00,91.8,66.0,29.92,ENE,77,1.0,3.0,43,0.00,,,0.00,weatherlink.com 1.10,2013-09-12 22:25:00,
2013-09-12 17:40:00,92.5,66.0,29.92,East,86,1.0,2.0,42,0.00,,,0.00,weatherlink.com 1.10,2013-09-12 22:40:00,
2013-09-12 17:55:00,91.9,67.0,29.92,SSE,150,1.0,3.0,44,0.00,,,0.00,weatherlink.com 1.10,2013-09-12 22:55:00,
2013-09-12 18:10:00,91.6,67.0,29.92,East,96,1.0,3.0,44,0.00,,,0.00,weatherlink.com 1.10,2013-09-12 23:10:00,
2013-09-12 18:25:00,90.4,67.0,29.92,ESE,119,0.0,2.0,46,0.00,,,0.00,weatherlink.com 1.10,2013-09-12 23:25:00,
2013-09-12 18:40:00,88.9,67.0,29.93,ESE,118,0.0,0.0,48,0.00,,,0.00,weatherlink.com 1.10,2013-09-12 23:40:00,
2013-09-12 18:55:00,87.3,67.0,29.93,ESE,118,0.0,0.0,51,0.00,,,0.00,weatherlink.com 1.10,2013-09-12 23:55:00,
2013-09-12 19:10:00,85.3,67.0,29.93,ESE,118,0.0,0.0,55,0.00,,,0.00,weatherlink.com 1.10,2013-09-13 00:10:00,
2013-09-12 19:25:00,83.3,67.0,29.93,ESE,119,0.0,0.0,59,0.00,,,0.00,weatherlink.com 1.10,2013-09-13 00:25:00,
2013-09-12 19:40:00,82.1,68.0,29.93,ESE,118,0.0,0.0,62,0.00,,,0.00,weatherlink.com 1.10,2013-09-13 00:40:00,
2013-09-12 19:55:00,81.3,67.0,29.93,ESE,118,0.0,0.0,63,0.00,,,0.00,weatherlink.com 1.10,2013-09-13 00:55:00,
2013-09-12 20:10:00,80.4,68.0,29.93,ESE,119,0.0,0.0,66,0.00,,,0.00,weatherlink.com 1.10,2013-09-13 01:10:00,
2013-09-12 20:25:00,79.6,68.0,29.94,ESE,119,0.0,0.0,68,0.00,,,0.00,weatherlink.com 1.10,2013-09-13 01:25:00,
2013-09-12 20:40:00,79.0,68.0,29.94,ESE,119,0.0,0.0,70,0.00,,,0.00,weatherlink.com 1.10,2013-09-13 01:40:00,
2013-09-12 20:55:00,78.3,68.0,29.94,ESE,119,0.0,0.0,71,0.00,,,0.00,weatherlink.com 1.10,2013-09-13 01:55:00,
2013-09-12 21:11:00,77.9,69.0,29.95,ESE,119,0.0,0.0,73,0.00,,,0.00,weatherlink.com 1.10,2013-09-13 02:11:00,
2013-09-12 21:26:00,77.2,68.0,29.95,ESE,119,0.0,0.0,74,0.00,,,0.00,weatherlink.com 1.10,2013-09-13 02:26:00,
2013-09-12 21:41:00,76.6,69.0,29.95,ESE,119,0.0,0.0,76,0.00,,,0.00,weatherlink.com 1.10,2013-09-13 02:41:00,
2013-09-12 21:56:00,76.3,69.0,29.95,ESE,119,0.0,0.0,77,0.00,,,0.00,weatherlink.com 1.10,2013-09-13 02:56:00,
2013-09-12 22:11:00,75.8,69.0,29.95,ESE,119,0.0,0.0,78,0.00,,,0.00,weatherlink.com 1.10,2013-09-13 03:11:00,
2013-09-12 22:26:00,75.6,68.0,29.95,ESE,119,0.0,0.0,78,0.00,,,0.00,weatherlink.com 1.10,2013-09-13 03:26:00,
2013-09-12 22:41:00,75.0,68.0,29.95,ESE,118,0.0,0.0,80,0.00,,,0.00,weatherlink.com 1.10,2013-09-13 03:41:00,
2013-09-12 22:56:00,74.7,69.0,29.95,ESE,119,0.0,0.0,81,0.00,,,0.00,weatherlink.com 1.10,2013-09-13 03:56:00,
2013-09-12 23:11:00,74.3,69.0,29.95,ESE,119,0.0,0.0,82,0.00,,,0.00,weatherlink.com 1.10,2013-09-13 04:11:00,
2013-09-12 23:26:00,74.1,68.0,29.95,ESE,118,0.0,0.0,82,0.00,,,0.00,weatherlink.com 1.10,2013-09-13 04:26:00,
2013-09-12 23:41:00,73.8,68.0,29.95,ESE,118,0.0,0.0,82,0.00,,,0.00,weatherlink.com 1.10,2013-09-13 04:41:00,
2013-09-12 23:56:00,73.7,68.0,29.95,ESE,118,0.0,0.0,82,0.00,,,0.00,weatherlink.com 1.10,2013-09-13 04:56:00,